createdAt,value
2023-05-19T04:15:56.162Z,16.47
2023-05-19T04:18:23.739Z,16.59
2023-05-19T04:20:51.173Z,16.56
2023-05-19T04:23:20.571Z,16.77
2023-05-19T04:25:48.771Z,16.70
2023-05-19T04:28:16.509Z,16.51
2023-05-19T04:30:46.730Z,16.51
2023-05-19T04:33:16.021Z,16.69
2023-05-19T04:35:44.614Z,16.34
2023-05-19T04:38:13.325Z,16.32
2023-05-19T04:40:43.124Z,16.33
2023-05-19T04:43:11.652Z,16.24
2023-05-19T04:45:42.660Z,16.35
2023-05-19T04:48:12.429Z,16.48
2023-05-19T04:50:42.155Z,16.23
2023-05-19T04:53:11.362Z,16.59
2023-05-19T04:55:39.362Z,16.47
2023-05-19T04:58:07.993Z,16.34
2023-05-19T05:00:36.966Z,16.28
2023-05-19T05:03:07.892Z,16.26
2023-05-19T05:05:35.566Z,16.37
2023-05-19T05:08:03.552Z,16.53
2023-05-19T05:10:36.068Z,16.48
2023-05-19T05:13:04.009Z,16.56
2023-05-19T05:15:31.660Z,16.70
2023-05-19T05:18:02.762Z,16.71
2023-05-19T05:20:31.367Z,16.60
2023-05-19T05:22:59.436Z,16.48
2023-05-19T05:25:28.013Z,16.38
2023-05-19T05:27:55.853Z,16.44
2023-05-19T05:30:24.579Z,16.39
2023-05-19T05:32:53.338Z,16.41
2023-05-19T05:35:41.413Z,16.66
2023-05-19T05:38:11.654Z,16.35
2023-05-19T05:40:39.467Z,16.54
2023-05-19T05:43:08.971Z,16.39
2023-05-19T05:45:42.396Z,16.53
2023-05-19T05:48:10.373Z,16.71
2023-05-19T05:50:38.254Z,16.57
2023-05-19T05:53:07.221Z,16.47
2023-05-19T05:55:38.121Z,16.44
2023-05-19T05:58:11.105Z,16.44
2023-05-19T06:00:38.819Z,16.75
2023-05-19T06:03:06.794Z,16.87
2023-05-19T06:05:34.458Z,16.68
2023-05-19T06:08:02.545Z,16.65
2023-05-19T06:10:31.850Z,16.71
2023-05-19T06:12:59.708Z,16.30
2023-05-19T06:15:27.793Z,16.36
2023-05-19T06:18:01.126Z,16.29
2023-05-19T06:20:29.378Z,16.32
2023-05-19T06:22:58.167Z,16.29
2023-05-19T06:25:27.673Z,16.29
2023-05-19T06:27:56.080Z,16.17
2023-05-19T06:30:24.242Z,16.58
2023-05-19T06:33:29.134Z,16.60
2023-05-19T06:35:57.105Z,16.22
2023-05-19T06:38:25.204Z,16.08
2023-05-19T06:40:53.847Z,16.16
2023-05-19T06:43:21.280Z,16.19
2023-05-19T06:45:56.999Z,16.21
2023-05-19T06:48:26.226Z,16.10
2023-05-19T06:50:54.041Z,15.99
2023-05-19T06:53:21.361Z,15.94
2023-05-19T06:55:59.553Z,15.99
2023-05-19T06:58:29.034Z,16.08
2023-05-19T07:00:57.698Z,15.97
2023-05-19T07:03:30.969Z,15.96
2023-05-19T07:06:00.269Z,16.11
2023-05-19T07:08:29.212Z,16.51
2023-05-19T07:10:59.872Z,16.33
2023-05-19T07:13:27.720Z,16.19
2023-05-19T07:15:56.333Z,16.22
2023-05-19T07:18:25.601Z,16.22
2023-05-19T07:20:53.905Z,16.34
2023-05-19T07:23:21.825Z,16.31
2023-05-19T07:25:49.998Z,16.25
2023-05-19T07:28:17.782Z,16.42
2023-05-19T07:30:46.163Z,16.40
2023-05-19T07:33:14.030Z,16.26
2023-05-19T07:35:41.480Z,16.47
2023-05-19T07:38:08.858Z,16.53
2023-05-19T07:40:36.724Z,16.53
2023-05-19T07:43:04.468Z,16.61
2023-05-19T07:45:32.236Z,16.88
2023-05-19T07:47:59.731Z,16.79
2023-05-19T07:50:27.314Z,16.09
2023-05-19T07:52:55.287Z,16.44
2023-05-19T07:55:25.249Z,16.60
2023-05-19T07:57:53.057Z,16.43
2023-05-19T08:00:21.105Z,16.54
2023-05-19T08:02:48.579Z,16.56
2023-05-19T08:05:16.409Z,16.43
2023-05-19T08:07:43.749Z,16.80
2023-05-19T08:10:11.504Z,16.90
2023-05-19T08:12:38.865Z,17.02
2023-05-19T08:15:07.493Z,17.17
2023-05-19T08:17:35.246Z,17.08
2023-05-19T08:20:04.926Z,17.28
2023-05-19T08:22:32.364Z,17.07
2023-05-19T08:24:59.821Z,17.07
2023-05-19T08:27:27.176Z,17.41
2023-05-19T08:29:55.474Z,17.18
2023-05-19T08:32:24.014Z,16.94
2023-05-19T08:34:51.618Z,17.49
2023-05-19T08:37:18.999Z,17.71
2023-05-19T08:39:46.390Z,17.95
2023-05-19T08:42:14.105Z,18.05
2023-05-19T08:44:42.909Z,18.34
2023-05-19T08:47:14.325Z,18.15
2023-05-19T08:49:47.499Z,18.61
2023-05-19T08:52:25.681Z,18.04
2023-05-19T08:55:02.434Z,18.28
2023-05-19T08:57:31.215Z,18.18
2023-05-19T09:00:00.202Z,18.23
2023-05-19T09:02:30.039Z,18.62
2023-05-19T09:04:57.768Z,18.88
2023-05-19T09:07:26.161Z,18.95
2023-05-19T09:09:53.966Z,18.40
2023-05-19T09:12:21.505Z,18.43
2023-05-19T09:14:49.365Z,18.57
2023-05-19T09:17:19.255Z,18.34
2023-05-19T09:19:48.172Z,17.73
2023-05-19T09:22:20.602Z,18.07
2023-05-19T09:24:48.488Z,18.51
2023-05-19T09:27:25.588Z,18.27
2023-05-19T09:29:53.072Z,18.54
2023-05-19T09:32:26.884Z,18.57
2023-05-19T09:34:55.240Z,18.17
2023-05-19T09:37:24.594Z,18.12
2023-05-19T09:39:53.280Z,17.73
2023-05-19T09:42:29.833Z,17.67
2023-05-19T09:45:02.197Z,17.69
2023-05-19T09:47:38.314Z,17.95
2023-05-19T09:50:10.404Z,18.12
2023-05-19T09:52:39.331Z,18.31
2023-05-19T09:55:10.937Z,17.98
2023-05-19T09:57:40.041Z,18.38
2023-05-19T10:00:14.912Z,18.62
2023-05-19T10:02:46.930Z,18.45
2023-05-19T10:05:17.556Z,18.55
2023-05-19T10:07:52.421Z,18.55
2023-05-19T10:10:21.031Z,18.12
2023-05-19T10:12:49.397Z,18.24
2023-05-19T10:15:20.694Z,18.04
2023-05-19T10:17:50.941Z,18.49
2023-05-19T10:20:18.439Z,18.28
2023-05-19T10:22:47.822Z,18.44
2023-05-19T10:25:18.356Z,18.81
2023-05-19T10:28:11.536Z,18.48
2023-05-19T10:30:45.864Z,18.24
2023-05-19T10:33:18.749Z,18.56
2023-05-19T10:35:47.280Z,18.35
2023-05-19T10:38:24.341Z,18.62
2023-05-19T10:41:16.611Z,18.90
2023-05-19T10:44:08.231Z,18.82
2023-05-19T10:46:36.369Z,19.16
2023-05-19T10:49:03.859Z,19.09
2023-05-19T10:51:32.494Z,18.72
2023-05-19T10:54:04.109Z,18.70
2023-05-19T10:56:34.827Z,18.62
2023-05-19T10:59:03.536Z,18.81
2023-05-19T11:01:36.083Z,18.78
2023-05-19T11:04:58.563Z,18.94
2023-05-19T11:07:26.513Z,18.55
2023-05-19T11:09:54.420Z,18.44
2023-05-19T11:12:24.651Z,18.36
2023-05-19T11:14:54.146Z,18.55
2023-05-19T11:17:22.380Z,18.46
2023-05-19T11:19:57.587Z,18.21
2023-05-19T11:22:27.269Z,18.37
2023-05-19T11:24:55.635Z,18.17
2023-05-19T11:27:32.879Z,18.14
2023-05-19T11:30:19.902Z,17.91
2023-05-19T11:32:48.804Z,17.78
2023-05-19T11:35:19.036Z,17.95
2023-05-19T11:37:47.730Z,18.00
2023-05-19T11:40:15.953Z,18.19
2023-05-19T11:42:45.234Z,17.90
2023-05-19T11:45:13.110Z,18.17
2023-05-19T11:47:57.140Z,18.15
2023-05-19T11:50:28.582Z,18.02
2023-05-19T11:52:57.658Z,18.07
2023-05-19T11:55:25.964Z,17.87
2023-05-19T11:58:04.417Z,17.96
2023-05-19T12:00:41.233Z,17.71
2023-05-19T12:03:09.959Z,17.74
2023-05-19T12:05:47.174Z,17.58
2023-05-19T12:08:17.432Z,17.60
2023-05-19T12:10:50.394Z,17.54
2023-05-19T12:13:18.404Z,17.64
2023-05-19T12:15:45.792Z,17.63
2023-05-19T12:18:13.233Z,17.72
2023-05-19T12:20:41.442Z,17.76
2023-05-19T12:23:09.821Z,17.59
2023-05-19T12:25:38.332Z,17.53
2023-05-19T12:28:05.822Z,17.72
2023-05-19T12:30:34.797Z,17.72
2023-05-19T12:35:54.583Z,17.94
2023-05-19T12:38:23.226Z,18.09
2023-05-19T12:40:50.897Z,18.03
2023-05-19T12:43:25.518Z,17.86
2023-05-19T12:45:53.420Z,18.16
2023-05-19T12:48:24.730Z,18.27
2023-05-19T12:50:55.549Z,18.02
2023-05-19T12:53:22.925Z,18.81
2023-05-19T12:55:52.989Z,18.41
2023-05-19T12:58:22.757Z,18.33
2023-05-19T13:00:50.549Z,18.45
2023-05-19T13:03:19.907Z,18.29
2023-05-19T13:05:50.346Z,18.17
2023-05-19T13:08:42.313Z,18.13
2023-05-19T13:11:10.217Z,18.11
2023-05-19T13:13:57.632Z,17.96
2023-05-19T13:16:46.336Z,18.06
2023-05-19T13:19:32.537Z,17.97
2023-05-19T13:22:00.349Z,17.95
2023-05-19T13:24:28.059Z,17.64
2023-05-19T13:26:56.764Z,17.63
2023-05-19T13:29:24.173Z,17.53
2023-05-19T13:31:52.321Z,17.35
2023-05-19T13:34:20.385Z,17.32
2023-05-19T13:36:48.894Z,17.35
2023-05-19T13:39:17.248Z,17.32
2023-05-19T13:41:44.642Z,17.28
2023-05-19T13:44:12.914Z,17.20
2023-05-19T13:46:45.261Z,17.03
2023-05-19T13:49:14.323Z,17.02
2023-05-19T13:51:43.696Z,16.86
2023-05-19T13:54:11.723Z,16.99
2023-05-19T13:56:39.559Z,17.23
2023-05-19T13:59:07.097Z,17.28
2023-05-19T14:01:34.655Z,17.29
2023-05-19T14:04:02.745Z,17.70
2023-05-19T14:06:30.593Z,17.79
2023-05-19T14:08:58.545Z,18.04
2023-05-19T14:11:26.381Z,18.05
2023-05-19T14:13:53.822Z,18.30
2023-05-19T14:16:22.898Z,17.77
2023-05-19T14:18:50.758Z,18.05
2023-05-19T14:21:18.294Z,18.00
2023-05-19T14:23:46.369Z,17.88
2023-05-19T14:26:13.738Z,18.08
2023-05-19T14:28:41.326Z,17.81
2023-05-19T14:31:13.095Z,18.02
2023-05-19T14:33:41.383Z,17.88
2023-05-19T14:36:09.825Z,17.83
2023-05-19T14:38:37.718Z,17.77
2023-05-19T14:41:06.704Z,17.73
2023-05-19T14:43:34.463Z,17.56
2023-05-19T14:46:01.982Z,17.51
2023-05-19T14:48:29.389Z,17.60
2023-05-19T14:50:56.808Z,17.56
2023-05-19T14:53:24.625Z,17.93
2023-05-19T14:55:52.822Z,17.74
2023-05-19T14:58:28.701Z,17.87
2023-05-19T15:00:59.654Z,17.60
2023-05-19T15:03:27.328Z,17.32
2023-05-19T15:05:54.756Z,17.39
2023-05-19T15:08:23.352Z,17.38
2023-05-19T15:10:51.526Z,17.70
2023-05-19T15:13:19.107Z,17.76
2023-05-19T15:15:46.909Z,17.60
2023-05-19T15:18:18.621Z,17.47
2023-05-19T15:20:46.568Z,17.39
2023-05-19T15:23:14.315Z,17.61
2023-05-19T15:25:42.218Z,17.63
2023-05-19T15:28:10.047Z,17.78
2023-05-19T15:30:37.695Z,17.64
2023-05-19T15:33:05.988Z,17.74
2023-05-19T15:35:34.497Z,17.51
2023-05-19T15:38:06.099Z,17.35
2023-05-19T15:40:33.627Z,17.38
2023-05-19T15:43:01.965Z,17.25
2023-05-19T15:45:29.444Z,17.25
2023-05-19T15:47:57.319Z,17.47
2023-05-19T15:50:26.363Z,17.42
2023-05-19T15:52:54.125Z,17.12
2023-05-19T15:55:21.559Z,16.84
2023-05-19T15:57:49.299Z,17.03
2023-05-19T16:00:17.405Z,16.97
2023-05-19T16:02:45.400Z,16.93
2023-05-19T16:05:12.904Z,17.06
2023-05-19T16:07:42.138Z,16.63
2023-05-19T16:10:10.735Z,16.72
2023-05-19T16:12:38.613Z,16.75
2023-05-19T16:15:07.024Z,16.66
2023-05-19T16:17:35.392Z,16.64
2023-05-19T16:20:03.078Z,16.54
2023-05-19T16:22:30.921Z,16.79
2023-05-19T16:24:58.798Z,16.92
2023-05-19T16:27:26.176Z,16.81
2023-05-19T16:29:55.426Z,16.74
2023-05-19T16:32:23.330Z,16.85
2023-05-19T16:34:51.298Z,16.96
2023-05-19T16:37:19.043Z,17.05
2023-05-19T16:39:48.330Z,17.20
2023-05-19T16:42:15.979Z,17.04
2023-05-19T16:44:43.904Z,17.29
2023-05-19T16:47:11.908Z,17.33
2023-05-19T16:49:40.852Z,17.39
2023-05-19T16:52:08.713Z,17.06
2023-05-19T16:54:36.386Z,17.06
2023-05-19T16:57:04.755Z,17.24
2023-05-19T16:59:32.586Z,17.33
2023-05-19T17:02:00.911Z,17.10
2023-05-19T17:04:30.643Z,17.07
2023-05-19T17:06:58.767Z,17.24
2023-05-19T17:09:26.536Z,17.13
2023-05-19T17:11:53.973Z,16.98
2023-05-19T17:14:21.957Z,17.06
2023-05-19T17:16:49.562Z,16.83
2023-05-19T17:19:17.117Z,16.64
2023-05-19T17:21:44.630Z,16.61
2023-05-19T17:24:12.467Z,16.66
2023-05-19T17:26:40.693Z,16.48
2023-05-19T17:29:08.267Z,16.40
2023-05-19T17:31:36.416Z,16.37
2023-05-19T17:34:03.888Z,16.39
2023-05-19T17:36:31.564Z,16.13
2023-05-19T17:38:59.459Z,16.16
2023-05-19T17:41:27.008Z,16.38
2023-05-19T17:43:54.830Z,16.37
2023-05-19T17:46:22.235Z,15.99
2023-05-19T17:48:50.173Z,16.13
2023-05-19T17:51:18.249Z,16.30
2023-05-19T17:53:45.932Z,16.38
2023-05-19T17:56:13.996Z,16.33
2023-05-19T17:58:42.502Z,16.32
2023-05-19T18:01:10.572Z,16.32
2023-05-19T18:03:38.399Z,16.24
2023-05-19T18:06:07.313Z,16.50
2023-05-19T18:08:37.894Z,16.46
2023-05-19T18:11:06.262Z,16.44
2023-05-19T18:13:33.650Z,16.30
2023-05-19T18:16:01.304Z,16.29
2023-05-19T18:18:28.755Z,16.32
2023-05-19T18:20:56.524Z,16.22
2023-05-19T18:23:23.941Z,16.11
2023-05-19T18:25:53.192Z,16.25
2023-05-19T18:28:20.654Z,16.24
2023-05-19T18:30:59.159Z,16.06
2023-05-19T18:33:28.436Z,15.92
2023-05-19T18:35:57.869Z,16.13
2023-05-19T18:38:25.829Z,16.25
2023-05-19T18:40:53.579Z,16.16
2023-05-19T18:43:21.508Z,16.09
2023-05-19T18:45:49.885Z,16.03
2023-05-19T18:48:17.406Z,15.86
2023-05-19T18:50:45.416Z,15.79
2023-05-19T18:53:12.928Z,15.88
2023-05-19T18:55:40.495Z,15.89
2023-05-19T18:58:08.322Z,15.70
2023-05-19T19:00:36.026Z,15.87
2023-05-19T19:03:04.436Z,15.95
2023-05-19T19:05:31.912Z,16.02
2023-05-19T19:07:59.649Z,15.93
2023-05-19T19:10:27.369Z,15.99
2023-05-19T19:12:58.444Z,15.96
2023-05-19T19:15:28.341Z,15.93
2023-05-19T19:17:56.183Z,15.89
2023-05-19T19:20:24.128Z,15.99
2023-05-19T19:22:52.115Z,15.93
2023-05-19T19:25:21.289Z,15.80
2023-05-19T19:27:50.818Z,15.87
2023-05-19T19:30:18.988Z,15.99
2023-05-19T19:32:47.238Z,15.79
2023-05-19T19:35:16.095Z,15.91
2023-05-19T19:37:43.487Z,15.73
2023-05-19T19:40:11.883Z,15.87
2023-05-19T19:42:40.384Z,15.90
2023-05-19T19:45:08.180Z,16.17
2023-05-19T19:47:36.523Z,15.97
2023-05-19T19:50:05.792Z,15.73
2023-05-19T19:52:33.491Z,15.79
2023-05-19T19:55:02.046Z,15.95
2023-05-19T19:57:31.533Z,15.82
2023-05-19T20:00:07.881Z,15.90
2023-05-19T20:02:40.959Z,15.95
2023-05-19T20:05:14.760Z,15.86
2023-05-19T20:07:42.907Z,16.08
2023-05-19T20:10:10.992Z,15.81
2023-05-19T20:12:38.728Z,16.04
2023-05-19T20:15:07.163Z,15.70
2023-05-19T20:17:34.913Z,15.77
2023-05-19T20:20:04.685Z,15.83
2023-05-19T20:22:32.817Z,16.17
2023-05-19T20:25:00.837Z,15.89
2023-05-19T20:27:28.124Z,16.01
2023-05-19T20:29:55.988Z,15.94
2023-05-19T20:32:23.344Z,16.04
2023-05-19T20:34:51.316Z,15.89
2023-05-19T20:37:19.376Z,15.94
2023-05-19T20:39:47.194Z,16.00
2023-05-19T20:42:15.168Z,16.15
2023-05-19T20:44:42.908Z,16.15
2023-05-19T20:47:10.954Z,16.24
2023-05-19T20:49:38.429Z,15.93
2023-05-19T20:52:06.848Z,15.95
2023-05-19T20:54:34.888Z,15.85
2023-05-19T20:57:06.475Z,15.78
2023-05-19T20:59:34.169Z,15.87
2023-05-19T21:02:02.145Z,15.89
2023-05-19T21:04:29.471Z,15.85
2023-05-19T21:06:56.942Z,15.82
